Chisholm-hibbing, MN

7:56 PM CDT on July 29, 2014 (GMT -0500)
Grand Rapids-Itasca County-Newstrom Field (KGPZ) Elev 1355 ft | 47.21 °N, 93.51 °W | Change Station

Current weather conditions updated 21 minutes ago

Mostly Cloudy
Mostly Cloudy
66 °F
Feels Like 66 °F
N
12
Wind Variable Wind from NNE
Gusts 31 mph

Tomorrow is forecast to be Warmer than today.

Today
High -- | Low -- °F
--% Chance of Precip.
Yesterday
High -- | Low -- °F
Precip. -- in
5:45 AM 8:49 PM
Waxing Crescent, 8% visible
Pressure 30.08 in
Visibility 5.0 miles
Clouds Few 2700 ft
Mostly Cloudy 4400 ft
Mostly Cloudy 5000 ft
Dew Point 52 °F
Humidity 60%
Rainfall 0.19 in
Snow Depth Not available.
UV 0 out of 12
Pollen 5.60 out of 12
Air Quality Not available.
Flu Activity Not available.
METAR KGPZ 300035Z AUTO 02010G27KT 300V010 5SM FEW027 BKN044 BKN050 19/11 A3008 RMK AO1 LTG DSNT E TSB19E34 P0019

More Conditions Fewer Conditions

Pressure 30.08 in
Visibility 5.0 miles
Clouds Few 2700 ft
Mostly Cloudy 4400 ft
Mostly Cloudy 5000 ft
Dew Point 52 °F
Humidity 60%
Rainfall 0.19 in
Snow Depth Not available.
UV 0 out of 12
Pollen 5.60 out of 12
Air Quality Not available.
Flu Activity Not available.
METAR KGPZ 300035Z AUTO 02010G27KT 300V010 5SM FEW027 BKN044 BKN050 19/11 A3008 RMK AO1 LTG DSNT E TSB19E34 P0019

More Conditions Fewer Conditions

10-Day Weather Forecast

Almanac

Astronomy

Jul. 29, 2014 Rise Set
Actual Time 5:45 AM CDT 8:49 PM CDT
Civil Twilight 5:09 AM CDT 9:25 PM CDT
Nautical Twilight 4:22 AM CDT 10:11 PM CDT
Astronomical Twilight 3:24 AM CDT 11:08 PM CDT
Moon 8:37 AM CDT (7/29) 9:45 PM CDT (7/29)
Length of Visible Light 16h 15m
Length of Day
15h 03m
Tomorrow will be 2m 33s shorter.
Waxing Crescent, 8% of the Moon is Illuminated
Today
Waxing Crescent
Aug 3
First Quarter
Aug 10
Full
Aug 17
Last Quarter
Aug 25
New

Today's Extremes

State Highs State Lows

Community

WunderPhotos

Upload Photos

1,738,924 photos uploaded!

Nearby

Snow Depth

Station Depth Elevation
No new snow has been reported.

Earthquake Activity

City Distance Mag. Time & Date
No recent earthquake activity has been reported nearby.
Minimum magnitude displayed is 2.5.

Coastal Water Temperatures

Place Temperature
No Stations Reporting

Nearby Weather Stations

Station Location Temp. Dew Point Humidity Wind Precip. Elev Updated Type
Hibbing, MN, Hibbing, MN 65.5 °F 8 °F 10% NW  at  0.0 mph 0.00 in / hr 1312 ft 7:46 PM CDT Normal
Leisure Lake,Mn, Makinen, MN 67.6 °F 66 °F 93% NW  at  1.7 mph - / hr 1427 ft 6:45 PM CDT Normal

Show More Stations Show Fewer Stations